Time;durP1;ratioP1;P1;durP2;ratioP2;P2;SDS_P1;SDS_P2;PMS_P1;PMS_P2;Temp;Humidity;BMP_temperature;BMP_pressure;BME280_temperature;BME280_humidity;BME280_pressure;Samples;Min_cycle;Max_cycle;Signal;HPM_P1;HPM_P2
2023/11/08 00:02:11;;;;;;;1.20;0.90;;;14.20;90.00;;;;;;5014727;28;20030;-83
2023/11/08 00:04:36;;;;;;;1.70;1.10;;;14.30;90.10;;;;;;5014680;28;20525;-84
2023/11/08 00:07:03;;;;;;;1.60;1.10;;;14.30;90.10;;;;;;5014891;28;20029;-84
2023/11/08 00:09:28;;;;;;;1.48;1.02;;;14.30;90.10;;;;;;5015286;28;20029;-83
2023/11/08 00:11:54;;;;;;;1.73;1.02;;;14.30;90.00;;;;;;5014826;28;20026;-84
2023/11/08 00:14:20;;;;;;;1.85;1.08;;;14.30;90.00;;;;;;5016309;28;20565;-84
2023/11/08 00:16:45;;;;;;;1.70;1.10;;;14.40;89.90;;;;;;5014412;28;20059;-84
2023/11/08 00:19:11;;;;;;;1.45;1.08;;;14.40;89.70;;;;;;5014564;28;20053;-84
2023/11/08 00:21:37;;;;;;;1.63;1.10;;;14.40;89.60;;;;;;5014642;28;20500;-84
2023/11/08 00:24:02;;;;;;;1.88;1.00;;;14.40;89.60;;;;;;5015144;28;20030;-84
2023/11/08 00:26:29;;;;;;;2.58;1.10;;;14.40;89.60;;;;;;5015018;28;20061;-84
2023/11/08 00:28:54;;;;;;;2.22;1.20;;;14.40;89.70;;;;;;5014445;28;20126;-84
2023/11/08 00:31:20;;;;;;;2.40;1.17;;;14.40;89.80;;;;;;5014476;28;20459;-84
2023/11/08 00:33:46;;;;;;;2.03;1.10;;;14.30;89.80;;;;;;5015900;28;20028;-84
2023/11/08 00:36:11;;;;;;;2.25;1.20;;;14.30;89.90;;;;;;5014633;28;20420;-84
2023/11/08 00:38:38;;;;;;;2.63;1.35;;;14.30;89.90;;;;;;5014228;28;20021;-84
2023/11/08 00:41:04;;;;;;;2.42;1.17;;;14.30;89.90;;;;;;5014452;28;20026;-83
2023/11/08 00:43:30;;;;;;;3.28;1.50;;;14.30;90.00;;;;;;5014184;28;20029;-84
2023/11/08 00:45:55;;;;;;;1.88;1.10;;;14.30;90.00;;;;;;5014354;28;20377;-83
2023/11/08 00:48:23;;;;;;;1.80;1.20;;;14.30;90.00;;;;;;5013933;28;20033;-84
2023/11/08 00:50:54;;;;;;;2.22;1.30;;;14.30;90.00;;;;;;5014380;28;20022;-84
2023/11/08 00:53:20;;;;;;;3.10;1.20;;;14.20;90.00;;;;;;5013251;28;20076;-84
2023/11/08 00:55:45;;;;;;;1.58;1.10;;;14.30;90.00;;;;;;5014381;28;20033;-84
2023/11/08 00:58:11;;;;;;;2.15;1.20;;;14.20;90.00;;;;;;5014102;28;20083;-83
2023/11/08 01:00:36;;;;;;;2.28;1.10;;;14.20;90.00;;;;;;5015736;28;20049;-83
2023/11/08 01:03:02;;;;;;;1.98;1.13;;;14.20;90.00;;;;;;5014211;28;20022;-84
2023/11/08 01:05:30;;;;;;;1.98;1.15;;;14.30;90.10;;;;;;5013973;28;20034;-84
2023/11/08 01:07:56;;;;;;;2.53;1.30;;;14.30;90.10;;;;;;5014304;28;20025;-83
2023/11/08 01:10:21;;;;;;;2.50;1.20;;;14.30;90.10;;;;;;5013697;28;20025;-84
2023/11/08 01:12:49;;;;;;;1.88;1.10;;;14.30;90.10;;;;;;5014236;28;20510;-84
2023/11/08 01:15:15;;;;;;;2.22;1.25;;;14.30;90.10;;;;;;5015510;28;20435;-84
2023/11/08 01:17:41;;;;;;;2.22;1.35;;;14.30;90.10;;;;;;5015253;28;20018;-83
2023/11/08 01:20:07;;;;;;;1.77;1.15;;;14.30;90.10;;;;;;5013597;28;20121;-84
2023/11/08 01:22:32;;;;;;;2.60;1.40;;;14.20;90.10;;;;;;5013864;28;20037;-83
2023/11/08 01:24:58;;;;;;;2.13;1.10;;;14.20;90.10;;;;;;5015478;28;20083;-83
2023/11/08 01:27:23;;;;;;;3.50;1.40;;;14.20;90.30;;;;;;5016048;28;20022;-84
2023/11/08 01:29:49;;;;;;;2.05;1.20;;;14.30;90.10;;;;;;5017559;28;20032;-83
2023/11/08 01:32:14;;;;;;;2.00;1.20;;;14.30;90.10;;;;;;5017330;28;20026;-84
2023/11/08 01:34:40;;;;;;;1.95;1.10;;;14.30;90.10;;;;;;5018695;28;20030;-84
2023/11/08 01:37:06;;;;;;;2.03;1.10;;;14.30;90.00;;;;;;5017202;28;20032;-83
2023/11/08 01:39:31;;;;;;;2.00;1.00;;;14.30;90.00;;;;;;5018818;28;20022;-84
2023/11/08 01:41:56;;;;;;;1.70;1.20;;;14.30;89.90;;;;;;5017489;28;20030;-83
2023/11/08 01:44:22;;;;;;;2.90;1.40;;;14.40;89.80;;;;;;5018884;28;20029;-84
2023/11/08 01:46:51;;;;;;;1.73;1.10;;;14.40;89.60;;;;;;5017313;28;20117;-83
2023/11/08 01:49:18;;;;;;;3.00;1.20;;;14.40;89.70;;;;;;5016903;28;20487;-84
2023/11/08 01:51:44;;;;;;;4.25;1.40;;;14.40;89.80;;;;;;5017249;28;20151;-84
2023/11/08 01:54:10;;;;;;;2.90;1.40;;;14.40;89.80;;;;;;5018788;28;20057;-83
2023/11/08 01:56:37;;;;;;;3.10;1.40;;;14.30;89.70;;;;;;5017245;28;20112;-84
2023/11/08 01:59:04;;;;;;;2.38;1.40;;;14.30;89.90;;;;;;5016738;28;20507;-84
2023/11/08 02:01:31;;;;;;;2.90;1.38;;;14.30;90.00;;;;;;5017353;28;20079;-83
2023/11/08 02:03:58;;;;;;;2.47;1.30;;;14.30;90.00;;;;;;5018237;28;20030;-83
2023/11/08 02:06:25;;;;;;;2.67;1.38;;;14.20;90.00;;;;;;5017104;28;20032;-84
2023/11/08 02:08:50;;;;;;;2.20;1.38;;;14.30;90.00;;;;;;5016454;28;20026;-84
2023/11/08 02:11:16;;;;;;;2.00;1.27;;;14.20;90.00;;;;;;5017136;28;20037;-83
2023/11/08 02:13:42;;;;;;;3.00;1.50;;;14.20;90.00;;;;;;5017184;28;20388;-84
2023/11/08 02:16:08;;;;;;;2.17;1.30;;;14.30;90.10;;;;;;5016583;28;20116;-83
2023/11/08 02:18:33;;;;;;;2.75;1.30;;;14.30;90.10;;;;;;5016953;28;20053;-83
2023/11/08 02:21:00;;;;;;;2.50;1.23;;;14.20;90.10;;;;;;5016792;28;20392;-83
2023/11/08 02:23:25;;;;;;;1.75;1.13;;;14.20;90.10;;;;;;5018303;28;20334;-83
2023/11/08 02:25:52;;;;;;;1.98;1.40;;;14.20;90.10;;;;;;5018298;28;20080;-83
2023/11/08 02:28:19;;;;;;;2.58;1.48;;;14.20;90.10;;;;;;5017861;28;20030;-83
2023/11/08 02:30:50;;;;;;;3.30;1.58;;;14.30;90.10;;;;;;5017099;28;20022;-84
2023/11/08 02:33:16;;;;;;;1.63;1.23;;;14.20;90.10;;;;;;5016787;28;20547;-83
2023/11/08 02:35:42;;;;;;;2.15;1.33;;;14.20;90.10;;;;;;5016284;28;20071;-83
2023/11/08 02:38:11;;;;;;;2.58;1.27;;;14.20;90.10;;;;;;5016177;28;20476;-81
2023/11/08 02:40:37;;;;;;;2.13;1.40;;;14.20;90.10;;;;;;5016191;28;20030;-84
2023/11/08 02:43:03;;;;;;;1.80;1.20;;;14.20;90.10;;;;;;5017689;28;20026;-84
2023/11/08 02:45:28;;;;;;;2.92;1.55;;;14.20;90.10;;;;;;5017466;28;20072;-84
2023/11/08 02:47:54;;;;;;;2.83;1.38;;;14.20;90.10;;;;;;5015384;28;20037;-83
2023/11/08 02:50:19;;;;;;;2.08;1.38;;;14.20;90.10;;;;;;5014980;28;20440;-83
2023/11/08 02:52:45;;;;;;;2.00;1.30;;;14.20;90.20;;;;;;5016635;28;20025;-83
2023/11/08 02:55:11;;;;;;;2.35;1.30;;;14.20;90.10;;;;;;5015309;28;20034;-83
2023/11/08 02:57:37;;;;;;;2.10;1.30;;;14.30;90.20;;;;;;5015816;28;20026;-84
2023/11/08 03:00:03;;;;;;;2.35;1.20;;;14.30;90.10;;;;;;5015221;28;20480;-83
2023/11/08 03:02:33;;;;;;;2.55;1.40;;;14.30;90.10;;;;;;5015780;28;20030;-84
2023/11/08 03:04:59;;;;;;;2.47;1.38;;;14.30;90.00;;;;;;5016928;28;20050;-83
2023/11/08 03:07:24;;;;;;;2.05;1.30;;;14.30;89.90;;;;;;5015109;28;20037;-83
2023/11/08 03:09:50;;;;;;;2.00;1.40;;;14.40;90.10;;;;;;5012170;28;20076;-83
2023/11/08 03:12:16;;;;;;;2.58;1.40;;;14.30;89.80;;;;;;5015063;28;20030;-83
2023/11/08 03:14:41;;;;;;;2.22;1.40;;;14.30;89.80;;;;;;5014815;28;20033;-84
2023/11/08 03:17:07;;;;;;;2.88;1.50;;;14.40;89.90;;;;;;5017208;28;20081;-83
2023/11/08 03:19:32;;;;;;;2.33;1.40;;;14.30;89.90;;;;;;5015035;28;20116;-83
2023/11/08 03:22:00;;;;;;;1.98;1.30;;;14.30;89.90;;;;;;5014951;28;20643;-83
2023/11/08 03:24:26;;;;;;;2.90;1.23;;;14.30;90.00;;;;;;5014930;28;20037;-83
2023/11/08 03:26:51;;;;;;;2.50;1.50;;;14.20;90.00;;;;;;5014917;28;20072;-83
2023/11/08 03:29:17;;;;;;;2.42;1.38;;;14.30;90.00;;;;;;5014838;28;20407;-83
2023/11/08 03:31:43;;;;;;;2.38;1.38;;;14.20;90.00;;;;;;5015204;28;20022;-83
2023/11/08 03:34:08;;;;;;;2.38;1.30;;;14.20;90.10;;;;;;5014973;28;20022;-82
2023/11/08 03:36:34;;;;;;;1.98;1.30;;;14.30;90.10;;;;;;5014676;28;20106;-83
2023/11/08 03:39:00;;;;;;;2.88;1.33;;;14.30;90.10;;;;;;5015867;28;20022;-83
2023/11/08 03:41:26;;;;;;;1.88;1.48;;;14.20;90.10;;;;;;5014449;28;20022;-84
2023/11/08 03:43:52;;;;;;;2.47;1.40;;;14.20;90.10;;;;;;5014607;28;20022;-83
2023/11/08 03:46:18;;;;;;;2.50;1.40;;;14.20;90.10;;;;;;5014498;28;20034;-83
2023/11/08 03:48:43;;;;;;;2.53;1.25;;;14.20;90.20;;;;;;5015100;28;20165;-83
2023/11/08 03:51:11;;;;;;;2.20;1.17;;;14.20;90.10;;;;;;5014590;28;20022;-83
2023/11/08 03:53:36;;;;;;;2.28;1.40;;;14.20;90.20;;;;;;5015025;28;20022;-83
2023/11/08 03:56:03;;;;;;;2.33;1.40;;;14.20;90.20;;;;;;5041655;23;20046;-81
2023/11/08 03:58:29;;;;;;;2.25;1.38;;;14.20;90.20;;;;;;5021966;28;20054;-81
2023/11/08 04:00:54;;;;;;;1.70;1.27;;;14.20;90.20;;;;;;5021450;28;20523;-80
2023/11/08 04:03:20;;;;;;;3.95;1.52;;;14.20;90.20;;;;;;5021434;28;20026;-81
2023/11/08 04:05:45;;;;;;;1.90;1.42;;;14.20;90.20;;;;;;5022000;28;20113;-80
2023/11/08 04:08:11;;;;;;;3.38;1.50;;;14.20;90.20;;;;;;5021081;28;20422;-81
2023/11/08 04:10:37;;;;;;;2.25;1.40;;;14.20;90.20;;;;;;5020809;28;20031;-80
2023/11/08 04:13:02;;;;;;;3.10;1.50;;;14.20;90.20;;;;;;5020787;28;20026;-80
2023/11/08 04:15:29;;;;;;;2.33;1.40;;;14.20;90.20;;;;;;5017112;28;20022;-79
2023/11/08 04:17:55;;;;;;;3.40;1.58;;;14.20;90.20;;;;;;5008193;28;20026;-79
2023/11/08 04:20:21;;;;;;;2.30;1.30;;;14.20;90.20;;;;;;4999174;28;20045;-79
2023/11/08 04:22:46;;;;;;;3.33;1.35;;;14.20;90.20;;;;;;4994339;28;20042;-79
2023/11/08 04:25:12;;;;;;;2.42;1.40;;;14.20;90.10;;;;;;4992185;28;20169;-79
2023/11/08 04:27:38;;;;;;;2.42;1.23;;;14.30;90.10;;;;;;4992038;28;20034;-80
2023/11/08 04:30:04;;;;;;;3.00;1.60;;;14.30;90.20;;;;;;4993189;28;20026;-79
2023/11/08 04:32:30;;;;;;;2.60;1.35;;;14.30;90.00;;;;;;4975215;28;20453;-78
2023/11/08 04:34:55;;;;;;;2.95;1.40;;;14.30;90.00;;;;;;4991288;28;20037;-80
2023/11/08 04:37:21;;;;;;;1.77;1.30;;;14.40;89.90;;;;;;5011932;28;20484;-79
2023/11/08 04:39:49;;;;;;;2.78;1.40;;;14.30;89.90;;;;;;5010328;28;20033;-80
2023/11/08 04:42:14;;;;;;;2.88;1.50;;;14.30;90.00;;;;;;5012168;28;20022;-79
2023/11/08 04:44:44;;;;;;;2.78;1.55;;;14.30;90.00;;;;;;5010371;28;20122;-79
2023/11/08 04:47:14;;;;;;;2.85;1.38;;;14.30;90.00;;;;;;5012005;28;20120;-81
2023/11/08 04:49:40;;;;;;;2.45;1.40;;;14.30;90.00;;;;;;5011702;28;20025;-80
2023/11/08 04:52:08;;;;;;;2.40;1.50;;;14.30;90.10;;;;;;5010378;28;20083;-83
2023/11/08 04:54:33;;;;;;;2.42;1.50;;;14.40;90.10;;;;;;5011144;28;20029;-80
2023/11/08 04:56:59;;;;;;;1.83;1.38;;;14.30;90.10;;;;;;5013166;28;20030;-80
2023/11/08 04:59:24;;;;;;;2.50;1.58;;;14.30;90.20;;;;;;5011025;28;20571;-80
2023/11/08 05:01:50;;;;;;;2.35;1.30;;;14.20;90.10;;;;;;5010832;28;20030;-80
2023/11/08 05:04:15;;;;;;;2.10;1.40;;;14.20;90.20;;;;;;5010586;28;20021;-80
2023/11/08 05:06:41;;;;;;;2.13;1.50;;;14.20;90.20;;;;;;5010643;28;20045;-79
2023/11/08 05:09:07;;;;;;;2.30;1.33;;;14.20;90.20;;;;;;5015512;28;20117;-86
2023/11/08 05:11:33;;;;;;;2.97;1.58;;;14.20;90.20;;;;;;5015594;28;20052;-82
2023/11/08 05:13:58;;;;;;;2.20;1.45;;;14.20;90.20;;;;;;5014279;28;20026;-81
2023/11/08 05:16:24;;;;;;;2.22;1.35;;;14.20;90.20;;;;;;5014327;28;20053;-81
2023/11/08 05:18:50;;;;;;;2.40;1.50;;;14.20;90.20;;;;;;5015245;28;20030;-80
2023/11/08 05:21:16;;;;;;;2.92;1.60;;;14.20;90.20;;;;;;5015913;28;20018;-80
2023/11/08 05:23:41;;;;;;;2.53;1.48;;;14.20;90.20;;;;;;5012720;28;20117;-81
2023/11/08 05:26:07;;;;;;;3.20;1.65;;;14.20;90.20;;;;;;5013014;28;20022;-81
2023/11/08 05:28:32;;;;;;;3.15;1.60;;;14.20;90.20;;;;;;5030646;28;20032;-81
2023/11/08 05:30:58;;;;;;;3.08;1.52;;;14.20;90.20;;;;;;5012536;28;20436;-80
2023/11/08 05:33:23;;;;;;;2.72;1.55;;;14.20;90.20;;;;;;5029919;28;20030;-81
2023/11/08 05:35:49;;;;;;;2.67;1.60;;;14.20;90.20;;;;;;5029856;28;20045;-80
2023/11/08 05:38:14;;;;;;;2.50;1.40;;;14.20;90.20;;;;;;5014149;28;20022;-81
2023/11/08 05:40:40;;;;;;;2.35;1.50;;;14.20;90.30;;;;;;5013062;28;20030;-82
2023/11/08 05:43:06;;;;;;;2.33;1.42;;;14.20;90.30;;;;;;5012330;28;20509;-80
2023/11/08 05:45:32;;;;;;;2.88;1.55;;;14.20;90.20;;;;;;5014446;28;20030;-80
2023/11/08 05:47:58;;;;;;;2.38;1.33;;;14.20;90.20;;;;;;5011895;28;20087;-81
2023/11/08 05:50:23;;;;;;;2.70;1.58;;;14.20;90.20;;;;;;5012080;28;20065;-80
2023/11/08 05:52:49;;;;;;;2.67;1.30;;;14.20;90.10;;;;;;5012226;28;20061;-80
2023/11/08 05:55:14;;;;;;;2.35;1.40;;;14.30;90.10;;;;;;5013294;28;20037;-80
2023/11/08 05:57:40;;;;;;;2.90;1.50;;;14.30;90.00;;;;;;5028363;28;20041;-79
2023/11/08 06:00:08;;;;;;;2.05;1.20;;;14.30;90.00;;;;;;4995353;28;20018;-81
2023/11/08 06:02:34;;;;;;;3.15;1.50;;;14.30;90.00;;;;;;4991726;28;20042;-80
2023/11/08 06:05:01;;;;;;;2.35;1.50;;;14.30;89.90;;;;;;4993395;28;20026;-81
2023/11/08 06:07:28;;;;;;;2.70;1.52;;;14.30;89.90;;;;;;4991936;28;20057;-80
2023/11/08 06:09:54;;;;;;;2.15;1.50;;;14.30;89.90;;;;;;4991866;28;20037;-82
2023/11/08 06:12:19;;;;;;;2.22;1.40;;;14.30;89.90;;;;;;4991132;28;20090;-82
2023/11/08 06:14:45;;;;;;;2.60;1.52;;;14.20;90.00;;;;;;4993423;28;20022;-80
2023/11/08 06:17:10;;;;;;;2.28;1.52;;;14.20;90.20;;;;;;4995215;28;20033;-79
2023/11/08 06:19:36;;;;;;;2.53;1.63;;;14.20;90.00;;;;;;4996901;28;20029;-81
2023/11/08 06:22:02;;;;;;;2.28;1.35;;;14.20;90.00;;;;;;4994767;28;20481;-80
2023/11/08 06:24:28;;;;;;;2.10;1.33;;;14.20;90.10;;;;;;4995126;28;20074;-79
2023/11/08 06:26:53;;;;;;;3.00;1.70;;;14.20;90.10;;;;;;4996325;28;20050;-79
2023/11/08 06:29:19;;;;;;;2.47;1.40;;;14.20;90.10;;;;;;4994121;28;20469;-79
2023/11/08 06:31:44;;;;;;;2.45;1.77;;;14.20;90.10;;;;;;4995028;28;20484;-80
2023/11/08 06:34:12;;;;;;;2.50;1.60;;;14.20;90.20;;;;;;4996223;28;20029;-81
2023/11/08 06:36:38;;;;;;;8.05;2.60;;;14.20;90.20;;;;;;4997457;28;20106;-81
2023/11/08 06:39:04;;;;;;;3.63;1.98;;;14.20;90.10;;;;;;4998933;28;20065;-79
2023/11/08 06:41:30;;;;;;;3.78;2.20;;;14.20;90.10;;;;;;4998596;28;20031;-79
2023/11/08 06:43:55;;;;;;;7.13;2.20;;;14.20;90.10;;;;;;4997402;28;20026;-78
2023/11/08 06:46:21;;;;;;;4.13;2.10;;;14.20;90.10;;;;;;4996337;28;20030;-79
2023/11/08 06:48:47;;;;;;;3.58;2.25;;;14.20;90.10;;;;;;4998086;28;20028;-79
2023/11/08 06:51:13;;;;;;;4.28;2.15;;;14.10;90.00;;;;;;5010539;28;20018;-80
2023/11/08 06:53:38;;;;;;;5.35;2.35;;;14.20;90.10;;;;;;5016465;28;20037;-79
2023/11/08 06:56:04;;;;;;;3.90;1.88;;;14.20;90.10;;;;;;5015341;28;20021;-78
2023/11/08 06:58:31;;;;;;;4.72;2.13;;;14.20;90.10;;;;;;5015443;28;20018;-80
2023/11/08 07:00:57;;;;;;;4.78;2.40;;;14.20;90.10;;;;;;5015530;28;20033;-80
2023/11/08 07:03:23;;;;;;;3.58;2.08;;;14.10;90.10;;;;;;5016479;28;20030;-80
2023/11/08 07:05:48;;;;;;;4.05;2.13;;;14.20;90.10;;;;;;5015387;28;20105;-80
2023/11/08 07:08:14;;;;;;;3.75;2.08;;;14.20;90.10;;;;;;5016513;28;20480;-80
2023/11/08 07:10:40;;;;;;;4.55;1.98;;;14.10;90.10;;;;;;5016841;28;20072;-79
2023/11/08 07:13:06;;;;;;;4.22;2.15;;;14.20;90.20;;;;;;5014778;28;20025;-80
2023/11/08 07:15:31;;;;;;;3.22;1.90;;;14.10;90.10;;;;;;5016207;28;20034;-79
2023/11/08 07:17:57;;;;;;;4.32;2.20;;;14.20;90.10;;;;;;5015143;28;20022;-78
2023/11/08 07:20:23;;;;;;;4.45;1.90;;;14.20;90.10;;;;;;5014531;28;20021;-78
2023/11/08 07:22:48;;;;;;;3.92;2.05;;;14.20;90.10;;;;;;5014674;28;20057;-80
2023/11/08 07:25:15;;;;;;;3.63;1.95;;;14.20;90.00;;;;;;5018079;28;20038;-81
2023/11/08 07:27:40;;;;;;;3.42;2.03;;;14.20;90.00;;;;;;5023738;28;20029;-81
2023/11/08 07:30:11;;;;;;;3.85;1.80;;;14.30;89.90;;;;;;5022906;28;20026;-81
2023/11/08 07:32:38;;;;;;;3.75;2.15;;;14.30;89.80;;;;;;5020741;28;20026;-80
2023/11/08 07:35:05;;;;;;;2.88;1.85;;;14.30;89.80;;;;;;5021873;28;20041;-80
2023/11/08 07:37:30;;;;;;;3.65;1.95;;;14.30;89.80;;;;;;5022863;28;20022;-80
2023/11/08 07:39:57;;;;;;;4.35;2.20;;;14.30;89.90;;;;;;5020385;28;20507;-80
2023/11/08 07:42:26;;;;;;;3.90;2.00;;;14.30;89.90;;;;;;5018712;28;20033;-80
2023/11/08 07:44:52;;;;;;;4.40;2.05;;;14.30;90.00;;;;;;5019960;28;20037;-80
2023/11/08 07:47:18;;;;;;;3.63;1.98;;;14.20;90.00;;;;;;5019268;28;20026;-80
2023/11/08 07:49:44;;;;;;;3.22;1.90;;;14.20;90.00;;;;;;5019570;28;20036;-80
2023/11/08 07:52:09;;;;;;;3.63;1.98;;;14.20;90.00;;;;;;5020101;28;20029;-80
2023/11/08 07:54:36;;;;;;;3.05;1.80;;;14.20;90.10;;;;;;5020029;28;20033;-80
2023/11/08 07:57:03;;;;;;;4.25;2.20;;;14.20;90.10;;;;;;5018219;28;20030;-80
2023/11/08 07:59:28;;;;;;;3.78;2.00;;;14.20;90.10;;;;;;5019600;28;20053;-80
2023/11/08 08:01:54;;;;;;;3.78;2.00;;;14.20;90.10;;;;;;5018987;28;20030;-80
2023/11/08 08:04:19;;;;;;;3.72;2.10;;;14.20;90.20;;;;;;5018792;28;20093;-80
2023/11/08 08:06:45;;;;;;;4.63;2.33;;;14.10;90.10;;;;;;5017703;28;20408;-80
2023/11/08 08:09:14;;;;;;;3.25;2.10;;;14.20;90.20;;;;;;5018605;28;20503;-79
2023/11/08 08:11:46;;;;;;;3.25;2.00;;;14.20;90.20;;;;;;5016995;28;20030;-79
2023/11/08 08:14:12;;;;;;;3.78;2.25;;;14.20;90.20;;;;;;5018541;28;20018;-80
2023/11/08 08:16:39;;;;;;;3.53;1.92;;;14.10;90.40;;;;;;5016620;28;20405;-79
2023/11/08 08:19:05;;;;;;;3.08;1.90;;;14.20;90.20;;;;;;5018538;28;20033;-80
2023/11/08 08:21:31;;;;;;;3.42;1.90;;;14.10;90.20;;;;;;5016304;28;20443;-80
2023/11/08 08:23:57;;;;;;;3.97;2.05;;;14.20;90.20;;;;;;5016301;28;20025;-80
2023/11/08 08:26:22;;;;;;;3.60;1.95;;;14.10;90.20;;;;;;5017696;28;20018;-80
2023/11/08 08:28:49;;;;;;;3.00;1.73;;;14.20;90.20;;;;;;5015944;28;20114;-80
2023/11/08 08:31:15;;;;;;;4.32;1.95;;;14.10;90.20;;;;;;5017018;28;20034;-80
2023/11/08 08:33:41;;;;;;;3.60;2.00;;;14.10;90.20;;;;;;5015863;28;20076;-80
2023/11/08 08:36:07;;;;;;;2.90;1.80;;;14.20;90.20;;;;;;5021853;28;20484;-80
2023/11/08 08:38:32;;;;;;;3.38;2.05;;;14.20;90.20;;;;;;5021898;28;20030;-80
2023/11/08 08:40:58;;;;;;;4.00;2.08;;;14.10;90.20;;;;;;5019159;28;20026;-80
2023/11/08 08:43:23;;;;;;;3.28;1.90;;;14.20;90.20;;;;;;5020452;28;20030;-80
2023/11/08 08:45:50;;;;;;;3.53;1.88;;;14.10;90.20;;;;;;5021519;28;20036;-80
2023/11/08 08:48:16;;;;;;;3.00;1.90;;;14.20;90.20;;;;;;5020703;28;20072;-79
2023/11/08 08:50:42;;;;;;;2.88;1.75;;;14.20;90.20;;;;;;5020861;28;20057;-80
2023/11/08 08:53:08;;;;;;;3.17;1.77;;;14.20;90.10;;;;;;5019287;28;20079;-80
2023/11/08 08:55:36;;;;;;;3.13;1.80;;;14.20;90.00;;;;;;5018716;28;20057;-80
2023/11/08 08:58:02;;;;;;;4.00;1.83;;;14.30;90.00;;;;;;5020218;28;20030;-80
2023/11/08 09:00:28;;;;;;;2.97;1.70;;;14.20;89.90;;;;;;5019811;28;20089;-79
2023/11/08 09:02:54;;;;;;;2.92;1.75;;;14.20;89.90;;;;;;5019940;28;20026;-79
2023/11/08 09:05:23;;;;;;;3.45;1.90;;;14.20;89.80;;;;;;5019508;28;20033;-80
2023/11/08 09:07:50;;;;;;;2.88;1.80;;;14.20;89.90;;;;;;5019263;28;20537;-80
2023/11/08 09:10:15;;;;;;;2.55;1.63;;;14.20;89.90;;;;;;5017030;28;20052;-80
2023/11/08 09:12:42;;;;;;;3.70;1.80;;;14.20;89.90;;;;;;5018364;28;20484;-80
2023/11/08 09:15:08;;;;;;;3.70;2.22;;;14.20;90.00;;;;;;5017295;28;20053;-80
2023/11/08 09:17:34;;;;;;;2.03;1.50;;;14.20;90.00;;;;;;5016868;28;20429;-80
2023/11/08 09:20:04;;;;;;;2.70;1.75;;;14.20;90.00;;;;;;5015977;28;20025;-80
2023/11/08 09:22:30;;;;;;;3.15;1.77;;;14.20;90.00;;;;;;5018245;28;20022;-80
2023/11/08 09:24:57;;;;;;;3.03;1.83;;;14.20;90.10;;;;;;5015888;28;20467;-80
2023/11/08 09:27:23;;;;;;;3.67;1.80;;;14.20;90.10;;;;;;5017504;28;20050;-80
2023/11/08 09:29:48;;;;;;;4.30;1.83;;;14.20;90.10;;;;;;5015068;28;20124;-80
2023/11/08 09:32:14;;;;;;;2.40;1.60;;;14.20;90.10;;;;;;5015722;28;20029;-80
2023/11/08 09:34:39;;;;;;;3.53;1.90;;;14.20;90.10;;;;;;5014802;28;20420;-80
2023/11/08 09:37:05;;;;;;;3.20;1.80;;;14.20;90.10;;;;;;5015554;28;20026;-80
2023/11/08 09:39:31;;;;;;;3.35;1.75;;;14.20;90.10;;;;;;5014773;28;20033;-80
2023/11/08 09:41:57;;;;;;;2.35;1.50;;;14.30;90.00;;;;;;5016198;28;20062;-80
2023/11/08 09:44:27;;;;;;;3.13;1.65;;;14.30;90.00;;;;;;5014299;28;20488;-80
2023/11/08 09:46:54;;;;;;;2.92;1.88;;;14.30;90.00;;;;;;5015852;28;20060;-80
2023/11/08 09:49:24;;;;;;;3.33;1.83;;;14.30;90.00;;;;;;5016531;28;20034;-80
2023/11/08 09:51:53;;;;;;;2.70;1.60;;;14.30;90.00;;;;;;5017801;28;20500;-80
2023/11/08 09:54:18;;;;;;;2.67;1.70;;;14.30;90.00;;;;;;5017733;28;20029;-80
2023/11/08 09:56:44;;;;;;;3.15;1.80;;;14.30;90.00;;;;;;5056195;22;20050;-84
2023/11/08 09:59:14;;;;;;;3.08;1.63;;;14.30;90.00;;;;;;5037502;28;20025;-83
2023/11/08 10:01:41;;;;;;;2.85;1.58;;;14.30;90.00;;;;;;5037548;28;20079;-84
2023/11/08 10:04:10;;;;;;;3.50;1.75;;;14.30;90.00;;;;;;5035952;28;20523;-83
2023/11/08 10:06:36;;;;;;;3.80;1.77;;;14.30;90.00;;;;;;5036231;28;20044;-84
2023/11/08 10:09:05;;;;;;;2.67;1.50;;;14.30;90.00;;;;;;5036128;28;20717;-84
2023/11/08 10:11:32;;;;;;;3.38;1.73;;;14.20;90.00;;;;;;5035984;28;20072;-84
2023/11/08 10:13:58;;;;;;;2.85;1.50;;;14.40;90.00;;;;;;5036324;28;20480;-84
2023/11/08 10:16:24;;;;;;;2.80;1.73;;;14.40;89.90;;;;;;5036339;28;20048;-84
2023/11/08 10:18:56;;;;;;;2.28;1.50;;;14.40;89.70;;;;;;5037736;28;20022;-84
2023/11/08 10:21:24;;;;;;;2.15;1.40;;;14.50;89.50;;;;;;5035870;28;20116;-83
2023/11/08 10:24:07;;;;;;;3.05;1.50;;;14.50;89.30;;;;;;5035891;28;20021;-84
2023/11/08 10:26:36;;;;;;;3.08;1.52;;;14.50;89.30;;;;;;5036871;28;20029;-84
2023/11/08 10:29:05;;;;;;;2.75;1.42;;;14.60;89.30;;;;;;5037196;28;20024;-84
2023/11/08 10:31:38;;;;;;;2.22;1.50;;;14.50;89.20;;;;;;5036116;28;20431;-84
2023/11/08 10:34:12;;;;;;;2.47;1.60;;;14.50;89.20;;;;;;5036151;28;20096;-84
2023/11/08 10:36:38;;;;;;;2.05;1.30;;;14.50;89.30;;;;;;5036171;28;20063;-84
2023/11/08 10:39:16;;;;;;;2.35;1.40;;;14.50;89.30;;;;;;5035545;28;20063;-84
2023/11/08 10:41:43;;;;;;;2.50;1.60;;;14.50;89.30;;;;;;5036630;28;20044;-84
2023/11/08 10:44:12;;;;;;;2.40;1.30;;;14.50;89.30;;;;;;5036155;28;20029;-84
2023/11/08 10:46:39;;;;;;;1.73;1.17;;;14.50;89.20;;;;;;5035691;28;20399;-84
2023/11/08 10:49:06;;;;;;;2.50;1.33;;;14.50;89.20;;;;;;5036451;28;20029;-84
2023/11/08 10:51:35;;;;;;;2.50;1.33;;;14.60;89.30;;;;;;5035636;28;20022;-83
2023/11/08 10:54:01;;;;;;;3.05;1.50;;;14.50;89.30;;;;;;5036852;28;20014;-84
2023/11/08 10:56:29;;;;;;;3.13;1.40;;;14.50;89.30;;;;;;5035201;28;20176;-83
2023/11/08 10:58:59;;;;;;;2.22;1.27;;;14.50;89.40;;;;;;5034946;28;20022;-83
2023/11/08 11:01:30;;;;;;;1.92;1.30;;;14.50;89.30;;;;;;5034888;28;20036;-84
2023/11/08 11:04:05;;;;;;;2.60;1.40;;;14.50;89.20;;;;;;5035308;28;20434;-84
2023/11/08 11:06:34;;;;;;;2.75;1.30;;;14.60;89.30;;;;;;5036582;28;20487;-83
2023/11/08 11:09:04;;;;;;;2.22;1.20;;;14.60;89.20;;;;;;5035276;28;20040;-83
2023/11/08 11:11:32;;;;;;;2.20;1.38;;;14.60;89.20;;;;;;5035159;28;20026;-84
2023/11/08 11:14:07;;;;;;;1.77;1.20;;;14.60;89.20;;;;;;5035309;28;20090;-84
2023/11/08 11:16:40;;;;;;;1.77;1.23;;;14.60;89.20;;;;;;5034792;28;20151;-84
2023/11/08 11:19:10;;;;;;;2.40;1.40;;;14.60;89.30;;;;;;5035243;28;20032;-84
2023/11/08 11:21:45;;;;;;;1.67;1.10;;;14.60;89.30;;;;;;5034737;28;20391;-84
2023/11/08 11:24:33;;;;;;;2.17;1.45;;;14.50;89.40;;;;;;5034597;28;20501;-83
2023/11/08 11:27:01;;;;;;;1.70;1.20;;;14.50;89.50;;;;;;5035823;28;20026;-84
2023/11/08 11:29:27;;;;;;;2.05;1.15;;;14.50;89.60;;;;;;5034876;28;20026;-84
2023/11/08 11:31:53;;;;;;;1.70;1.23;;;14.50;89.70;;;;;;5034307;28;20538;-84
2023/11/08 11:34:29;;;;;;;2.55;1.30;;;14.50;89.70;;;;;;5036135;28;20048;-84
2023/11/08 11:37:05;;;;;;;2.40;1.30;;;14.50;89.70;;;;;;5034563;28;20535;-84
2023/11/08 11:39:32;;;;;;;2.38;1.30;;;14.50;89.70;;;;;;5034707;28;20030;-80
2023/11/08 11:41:58;;;;;;;1.50;1.08;;;14.50;89.70;;;;;;5034488;28;20419;-84
2023/11/08 11:44:42;;;;;;;1.80;1.20;;;14.50;89.70;;;;;;5034645;28;20025;-84
2023/11/08 11:47:10;;;;;;;2.95;1.40;;;14.60;89.60;;;;;;5035992;28;20026;-83
2023/11/08 11:49:47;;;;;;;2.13;1.30;;;14.60;89.40;;;;;;5034394;28;20079;-84
2023/11/08 11:52:15;;;;;;;3.05;1.08;;;14.60;89.30;;;;;;5035617;28;20049;-84
2023/11/08 11:54:46;;;;;;;1.35;1.00;;;14.60;89.00;;;;;;5034150;28;20028;-84
2023/11/08 11:57:13;;;;;;;;;;;14.60;89.00;;;;;;5034601;28;20084;-84
2023/11/08 11:59:38;;;;;;;1.63;1.10;;;14.60;89.00;;;;;;5033859;28;19975;-84
2023/11/08 12:02:04;;;;;;;2.40;1.10;;;14.60;88.90;;;;;;5033796;28;20489;-84
2023/11/08 12:04:29;;;;;;;2.28;1.05;;;14.70;88.90;;;;;;5034135;28;20048;-84
2023/11/08 12:06:55;;;;;;;2.72;1.20;;;14.70;88.90;;;;;;5033936;28;20439;-84
2023/11/08 12:09:23;;;;;;;1.55;1.10;;;14.70;88.60;;;;;;5033912;28;20507;-83
2023/11/08 12:11:49;;;;;;;2.60;1.23;;;14.70;88.70;;;;;;5033239;28;20410;-84
2023/11/08 12:14:23;;;;;;;1.92;1.00;;;14.70;88.70;;;;;;5035177;28;20104;-84
2023/11/08 12:16:49;;;;;;;2.25;1.38;;;14.70;88.80;;;;;;5033559;28;20391;-84
2023/11/08 12:19:16;;;;;;;1.75;1.10;;;14.70;88.90;;;;;;5033545;28;20022;-83
2023/11/08 12:21:46;;;;;;;1.25;0.88;;;14.70;89.00;;;;;;5035166;28;20028;-84
2023/11/08 12:24:12;;;;;;;1.55;1.10;;;14.70;88.90;;;;;;5034830;28;20032;-84
2023/11/08 12:26:38;;;;;;;2.05;1.13;;;14.60;88.90;;;;;;5033660;28;20402;-83
2023/11/08 12:29:07;;;;;;;1.38;0.95;;;14.60;89.00;;;;;;5033403;28;20021;-83
2023/11/08 12:31:35;;;;;;;1.30;1.00;;;14.70;89.00;;;;;;5033503;28;20148;-83
2023/11/08 12:34:04;;;;;;;1.33;1.00;;;14.70;89.00;;;;;;5034499;28;20496;-83
2023/11/08 12:36:30;;;;;;;1.23;1.00;;;14.70;88.90;;;;;;5033328;28;20140;-83
2023/11/08 12:38:56;;;;;;;1.58;0.93;;;14.70;88.90;;;;;;5033478;28;20045;-84
2023/11/08 12:41:21;;;;;;;2.00;1.05;;;14.80;88.90;;;;;;5032837;28;20026;-83
2023/11/08 12:43:58;;;;;;;1.92;1.00;;;14.80;88.90;;;;;;5033305;28;20467;-83
2023/11/08 12:46:24;;;;;;;1.88;1.10;;;14.80;88.90;;;;;;5034372;28;20024;-83